Terminal Aerodrome Forecast
Issued by NWS

Home | Current Version | Previous Version | Text Only | Print | Product List | Glossary On
Versions: 1 2 3 4 5 6 7 8 9 10 11 12 13 14 15 16 17 18 19 20 21 22 23 24 25 26 27 28
000
FTUS43 KGLD 282320
TAFMCK
TAF
KMCK 282320Z 2900/2924 VRB05KT P6SM BKN100
     FM291000 02007KT P6SM SCT025 BKN050
     FM291400 03012G17KT P6SM VCSH SCT015 BKN025
      TEMPO 2914/2918 3SM -SN BR SCT007 BKN015
     FM291800 03014G24KT 1SM -SN BLSN OVC005=

USA.gov is the U.S. government's official web portal to all federal, state and local government web resources and services.